createdAt,value
2019-02-25T00:00:47.258Z,3.90
2019-02-25T00:03:16.718Z,3.90
2019-02-25T00:05:46.253Z,3.90
2019-02-25T00:08:15.773Z,3.90
2019-02-25T00:10:45.232Z,4.00
2019-02-25T00:13:14.678Z,3.90
2019-02-25T00:15:44.166Z,3.80
2019-02-25T00:18:13.685Z,3.80
2019-02-25T00:20:43.144Z,3.80
2019-02-25T00:23:12.625Z,3.80
2019-02-25T00:25:42.071Z,3.80
2019-02-25T00:28:11.669Z,3.80
2019-02-25T00:30:41.504Z,3.80
2019-02-25T00:33:10.953Z,3.70
2019-02-25T00:35:40.409Z,3.70
2019-02-25T00:38:09.893Z,3.70
2019-02-25T00:40:39.352Z,3.70
2019-02-25T00:43:08.818Z,3.60
2019-02-25T00:45:38.361Z,3.60
2019-02-25T00:48:07.801Z,3.50
2019-02-25T00:50:37.266Z,3.50
2019-02-25T00:53:06.817Z,3.40
2019-02-25T00:55:36.364Z,3.40
2019-02-25T00:58:05.899Z,3.40
2019-02-25T01:00:35.657Z,3.40
2019-02-25T01:03:06.175Z,3.40
2019-02-25T01:05:35.691Z,3.40
2019-02-25T01:08:07.650Z,3.40
2019-02-25T01:10:36.676Z,3.40
2019-02-25T01:13:06.304Z,3.40
2019-02-25T01:15:36.339Z,3.40
2019-02-25T01:18:05.799Z,3.40
2019-02-25T01:20:35.241Z,3.30
2019-02-25T01:23:04.731Z,3.30
2019-02-25T01:25:34.183Z,3.30
2019-02-25T01:28:03.635Z,3.30
2019-02-25T01:30:33.119Z,3.30
2019-02-25T01:33:02.642Z,3.20
2019-02-25T01:35:32.194Z,3.20
2019-02-25T01:38:01.692Z,3.20
2019-02-25T01:40:31.131Z,3.30
2019-02-25T01:43:00.596Z,3.20
2019-02-25T01:45:30.080Z,3.30
2019-02-25T01:47:59.594Z,3.30
2019-02-25T01:50:29.001Z,3.30
2019-02-25T01:52:58.481Z,3.30
2019-02-25T01:55:27.931Z,3.30
2019-02-25T01:57:57.399Z,3.20
2019-02-25T02:00:26.951Z,3.20
2019-02-25T02:02:56.500Z,3.20
2019-02-25T02:05:25.952Z,3.20
2019-02-25T02:07:55.437Z,3.20
2019-02-25T02:10:24.892Z,3.20
2019-02-25T02:12:54.405Z,3.20
2019-02-25T02:15:23.952Z,3.10
2019-02-25T02:17:53.459Z,3.10
2019-02-25T02:20:22.910Z,3.10
2019-02-25T02:22:52.389Z,3.10
2019-02-25T02:25:21.850Z,3.10
2019-02-25T02:27:51.311Z,3.10
2019-02-25T02:30:22.911Z,3.20
2019-02-25T02:32:52.382Z,3.20
2019-02-25T02:35:21.840Z,3.20
2019-02-25T02:37:51.325Z,3.20
2019-02-25T02:40:20.768Z,3.10
2019-02-25T02:42:57.833Z,3.20
2019-02-25T02:45:37.344Z,3.20
2019-02-25T02:48:17.184Z,3.20
2019-02-25T02:50:46.728Z,3.20
2019-02-25T02:53:16.184Z,3.10
2019-02-25T02:55:45.665Z,3.10
2019-02-25T02:58:15.129Z,3.10
2019-02-25T03:00:44.586Z,3.10
2019-02-25T03:03:14.077Z,3.10
2019-02-25T03:05:43.593Z,3.10
2019-02-25T03:08:13.049Z,3.10
2019-02-25T03:10:42.542Z,3.10
2019-02-25T03:13:12.002Z,3.10
2019-02-25T03:15:41.444Z,3.10
2019-02-25T03:18:10.931Z,3.20
2019-02-25T03:20:40.381Z,3.20
2019-02-25T03:23:09.839Z,3.20
2019-02-25T03:25:39.318Z,3.20
2019-02-25T03:28:08.778Z,3.20
2019-02-25T03:30:38.221Z,3.20
2019-02-25T03:33:07.712Z,3.20
2019-02-25T03:35:37.257Z,3.10
2019-02-25T03:38:06.706Z,3.10
2019-02-25T03:40:36.195Z,3.10
2019-02-25T03:43:05.680Z,3.20
2019-02-25T03:45:35.125Z,3.20
2019-02-25T03:48:04.602Z,3.30
2019-02-25T03:50:35.098Z,3.30
2019-02-25T03:53:04.621Z,3.40
2019-02-25T03:55:34.077Z,3.50
2019-02-25T03:58:03.525Z,3.50
2019-02-25T04:00:33.067Z,3.50
2019-02-25T04:03:02.518Z,3.50
2019-02-25T04:05:32.126Z,3.50
2019-02-25T04:08:01.620Z,3.50
2019-02-25T04:10:31.067Z,3.60
2019-02-25T04:13:00.519Z,3.60
2019-02-25T04:15:31.704Z,3.60
2019-02-25T04:18:01.248Z,3.50
2019-02-25T04:20:31.148Z,3.50
2019-02-25T04:23:00.825Z,3.50
2019-02-25T04:25:30.283Z,3.50
2019-02-25T04:27:59.740Z,3.60
2019-02-25T04:30:29.210Z,3.50
2019-02-25T04:32:58.738Z,3.60
2019-02-25T04:35:28.191Z,3.60
2019-02-25T04:37:57.668Z,3.60
2019-02-25T04:40:27.112Z,3.60
2019-02-25T04:42:56.571Z,3.60
2019-02-25T04:45:26.038Z,3.60
2019-02-25T04:47:55.489Z,3.70
2019-02-25T04:50:24.952Z,3.60
2019-02-25T04:52:54.430Z,3.60
2019-02-25T04:55:23.883Z,3.60
2019-02-25T04:57:53.339Z,3.50
2019-02-25T05:00:27.587Z,3.40
2019-02-25T05:02:57.053Z,3.40
2019-02-25T05:05:26.498Z,3.30
2019-02-25T05:07:55.953Z,3.30
2019-02-25T05:10:25.972Z,3.30
2019-02-25T05:13:03.114Z,3.20
2019-02-25T05:15:34.061Z,3.20
2019-02-25T05:18:03.473Z,3.10
2019-02-25T05:20:33.179Z,3.10
2019-02-25T05:23:02.637Z,3.00
2019-02-25T05:25:32.112Z,3.00
2019-02-25T05:28:01.552Z,3.00
2019-02-25T05:30:31.005Z,2.90
2019-02-25T05:33:00.487Z,2.90
2019-02-25T05:35:29.965Z,2.90
2019-02-25T05:37:59.450Z,3.40
2019-02-25T05:40:28.902Z,3.00
2019-02-25T05:42:58.390Z,3.10
2019-02-25T05:45:27.831Z,2.90
2019-02-25T05:47:57.312Z,2.90
2019-02-25T05:50:26.780Z,2.90
2019-02-25T05:52:56.248Z,2.90
2019-02-25T05:55:25.711Z,2.90
2019-02-25T05:57:55.186Z,2.90
2019-02-25T06:00:26.908Z,2.90
2019-02-25T06:02:56.370Z,2.90
2019-02-25T06:05:25.915Z,3.00
2019-02-25T06:07:55.356Z,3.00
2019-02-25T06:10:24.805Z,2.90
2019-02-25T06:12:54.278Z,2.90
2019-02-25T06:15:23.733Z,2.90
2019-02-25T06:17:53.182Z,2.90
2019-02-25T06:20:22.671Z,2.80
2019-02-25T06:22:52.113Z,2.90
2019-02-25T06:25:21.558Z,2.80
2019-02-25T06:27:51.027Z,2.80
2019-02-25T06:30:22.302Z,2.80
2019-02-25T06:32:51.739Z,2.80
2019-02-25T06:35:21.285Z,2.90
2019-02-25T06:37:50.729Z,2.80
2019-02-25T06:40:21.387Z,2.80
2019-02-25T06:42:50.950Z,2.90
2019-02-25T06:45:36.012Z,2.90
2019-02-25T06:48:05.552Z,2.90
2019-02-25T06:50:35.010Z,3.00
2019-02-25T06:53:04.456Z,3.10
2019-02-25T06:55:33.936Z,3.10
2019-02-25T06:58:03.390Z,3.20
2019-02-25T07:00:32.831Z,3.20
2019-02-25T07:03:02.536Z,3.30
2019-02-25T07:05:33.622Z,3.40
2019-02-25T07:08:04.774Z,3.60
2019-02-25T07:10:44.679Z,3.60
2019-02-25T07:13:30.880Z,3.70
2019-02-25T07:16:02.021Z,3.80
2019-02-25T07:18:39.367Z,3.90
2019-02-25T07:21:13.103Z,4.00
2019-02-25T07:23:46.915Z,4.00
2019-02-25T07:26:20.702Z,4.00
2019-02-25T07:29:03.612Z,4.00
2019-02-25T07:31:44.010Z,4.10
2019-02-25T07:34:31.295Z,4.20
2019-02-25T07:37:02.420Z,4.30
2019-02-25T07:39:39.247Z,4.30
2019-02-25T07:42:10.365Z,4.40
2019-02-25T07:44:50.275Z,4.50
2019-02-25T07:47:21.390Z,4.50
2019-02-25T07:49:55.406Z,4.50
2019-02-25T07:52:32.455Z,4.50
2019-02-25T07:55:18.673Z,4.50
2019-02-25T07:58:07.915Z,4.60
2019-02-25T08:00:39.012Z,4.60
2019-02-25T08:03:10.108Z,4.60
2019-02-25T08:05:44.202Z,4.60
2019-02-25T08:08:15.286Z,4.70
2019-02-25T08:10:55.304Z,4.70
2019-02-25T08:13:41.716Z,4.70
2019-02-25T08:16:15.314Z,4.80
2019-02-25T08:18:52.387Z,4.80
2019-02-25T08:21:29.500Z,4.90
2019-02-25T08:24:04.454Z,5.00
2019-02-25T08:26:44.682Z,5.10
2019-02-25T08:29:15.784Z,5.00
2019-02-25T08:31:46.925Z,5.10
2019-02-25T08:34:18.896Z,5.10
2019-02-25T08:37:09.789Z,5.20
2019-02-25T08:39:53.689Z,5.30
2019-02-25T08:42:25.272Z,5.30
2019-02-25T08:44:56.396Z,5.40
2019-02-25T08:47:27.505Z,5.50
2019-02-25T08:49:57.333Z,5.60
2019-02-25T08:52:26.793Z,5.60
2019-02-25T08:54:56.251Z,5.70
2019-02-25T08:57:25.813Z,5.70
2019-02-25T08:59:55.261Z,5.80
2019-02-25T09:02:24.750Z,5.80
2019-02-25T09:04:54.195Z,6.00
2019-02-25T09:07:23.689Z,6.00
2019-02-25T09:09:53.140Z,6.10
2019-02-25T09:12:22.644Z,6.10
2019-02-25T09:14:52.099Z,6.20
2019-02-25T09:17:21.560Z,6.20
2019-02-25T09:19:51.022Z,6.30
2019-02-25T09:22:20.484Z,6.40
2019-02-25T09:24:49.943Z,6.40
2019-02-25T09:27:19.392Z,6.40
2019-02-25T09:29:48.885Z,6.50
2019-02-25T09:32:19.082Z,6.50
2019-02-25T09:34:48.727Z,6.60
2019-02-25T09:37:18.181Z,6.70
2019-02-25T09:39:47.671Z,6.80
2019-02-25T09:42:17.134Z,6.80
2019-02-25T09:44:46.596Z,7.00
2019-02-25T09:47:16.071Z,7.10
2019-02-25T09:49:45.531Z,7.20
2019-02-25T09:52:15.007Z,7.20
2019-02-25T09:54:44.459Z,7.30
2019-02-25T09:57:13.944Z,7.30
2019-02-25T09:59:43.430Z,7.50
2019-02-25T10:02:12.889Z,7.60
2019-02-25T10:04:42.368Z,7.70
2019-02-25T10:07:11.856Z,7.70
2019-02-25T10:09:41.315Z,7.80
2019-02-25T10:12:10.777Z,7.90
2019-02-25T10:14:40.262Z,7.90
2019-02-25T10:17:09.700Z,8.00
2019-02-25T10:19:39.184Z,8.20
2019-02-25T10:22:08.639Z,8.20
2019-02-25T10:24:39.827Z,8.30
2019-02-25T10:27:09.482Z,8.40
2019-02-25T10:29:38.927Z,8.40
2019-02-25T10:32:08.370Z,8.50
2019-02-25T10:34:37.831Z,8.70
2019-02-25T10:37:08.887Z,8.90
2019-02-25T10:39:38.517Z,8.90
2019-02-25T10:42:07.990Z,9.00
2019-02-25T10:44:38.261Z,9.10
2019-02-25T10:47:08.688Z,9.10
2019-02-25T10:49:38.178Z,9.20
2019-02-25T10:52:08.741Z,9.30
2019-02-25T10:54:38.871Z,9.50
2019-02-25T10:57:08.354Z,9.50
2019-02-25T10:59:40.959Z,9.80
2019-02-25T11:02:11.058Z,9.70
2019-02-25T11:04:40.268Z,9.70
2019-02-25T11:07:09.811Z,9.80
2019-02-25T11:09:42.045Z,10.00
2019-02-25T11:12:12.220Z,10.20
2019-02-25T11:14:43.378Z,10.10
2019-02-25T11:17:13.918Z,10.00
2019-02-25T11:19:43.869Z,10.20
2019-02-25T11:22:14.637Z,10.30
2019-02-25T11:24:46.468Z,10.20
2019-02-25T11:27:16.038Z,10.30
2019-02-25T11:29:46.220Z,10.40
2019-02-25T11:32:17.348Z,10.50
2019-02-25T11:34:47.918Z,10.50
2019-02-25T11:37:19.726Z,10.60
2019-02-25T11:39:48.708Z,10.60
2019-02-25T11:42:20.551Z,10.70
2019-02-25T11:44:49.460Z,10.90
2019-02-25T11:47:18.938Z,10.80
2019-02-25T11:49:48.417Z,11.00
2019-02-25T11:52:17.986Z,11.10
2019-02-25T11:54:47.448Z,10.90
2019-02-25T11:57:16.930Z,10.90
2019-02-25T11:59:51.279Z,11.10
2019-02-25T12:02:25.499Z,11.00
2019-02-25T12:04:52.221Z,11.00
2019-02-25T12:07:21.679Z,11.10
2019-02-25T12:09:51.195Z,11.10
2019-02-25T12:12:20.643Z,11.30
2019-02-25T12:14:50.130Z,11.40
2019-02-25T12:17:19.601Z,11.40
2019-02-25T12:19:49.113Z,11.50
2019-02-25T12:22:18.603Z,11.50
2019-02-25T12:24:48.049Z,11.60
2019-02-25T12:27:17.583Z,11.50
2019-02-25T12:29:47.083Z,11.50
2019-02-25T12:32:16.548Z,11.60
2019-02-25T12:34:46.022Z,11.70
2019-02-25T12:37:15.489Z,11.60
2019-02-25T12:39:44.988Z,11.60
2019-02-25T12:42:14.513Z,11.50
2019-02-25T12:44:44.019Z,11.60
2019-02-25T12:47:13.485Z,11.60
2019-02-25T12:49:43.014Z,11.90
2019-02-25T12:52:12.517Z,12.10
2019-02-25T12:54:41.969Z,12.20
2019-02-25T12:57:11.472Z,12.30
2019-02-25T12:59:40.966Z,12.40
2019-02-25T13:02:10.429Z,12.40
2019-02-25T13:04:39.924Z,12.50
2019-02-25T13:07:09.592Z,12.70
2019-02-25T13:09:39.038Z,12.70
2019-02-25T13:12:08.514Z,12.50
2019-02-25T13:14:38.003Z,12.70
2019-02-25T13:17:07.462Z,12.70
2019-02-25T13:19:38.449Z,12.60
2019-02-25T13:22:07.950Z,12.90
2019-02-25T13:24:39.408Z,12.80
2019-02-25T13:27:11.064Z,12.80
2019-02-25T13:29:39.836Z,12.70
2019-02-25T13:32:09.306Z,12.70
2019-02-25T13:34:38.923Z,12.90
2019-02-25T13:37:08.688Z,13.00
2019-02-25T13:39:38.138Z,13.00
2019-02-25T13:42:07.601Z,13.00
2019-02-25T13:44:37.089Z,13.00
2019-02-25T13:47:06.569Z,13.20
2019-02-25T13:49:36.052Z,13.30
2019-02-25T13:52:05.555Z,13.20
2019-02-25T13:54:35.432Z,13.40
2019-02-25T13:57:04.888Z,13.30
2019-02-25T13:59:34.338Z,13.40
2019-02-25T14:02:03.999Z,13.30
2019-02-25T14:04:33.466Z,13.30
2019-02-25T14:07:02.914Z,13.30
2019-02-25T14:09:32.463Z,13.30
2019-02-25T14:12:01.951Z,13.40
2019-02-25T14:14:31.419Z,13.30
2019-02-25T14:17:00.926Z,13.40
2019-02-25T14:19:30.471Z,13.40
2019-02-25T14:21:59.926Z,13.50
2019-02-25T14:24:29.701Z,13.40
2019-02-25T14:26:59.237Z,13.40
2019-02-25T14:29:28.786Z,13.30
2019-02-25T14:31:58.244Z,13.40
2019-02-25T14:34:27.749Z,13.40
2019-02-25T14:36:59.209Z,13.40
2019-02-25T14:39:30.397Z,13.60
2019-02-25T14:42:01.747Z,13.50
2019-02-25T14:44:33.147Z,13.50
2019-02-25T14:47:03.404Z,13.60
2019-02-25T14:49:35.206Z,13.70
2019-02-25T14:52:05.278Z,13.70
2019-02-25T14:54:34.770Z,13.50
2019-02-25T14:57:04.577Z,13.60
2019-02-25T14:59:34.010Z,13.70
2019-02-25T15:02:04.010Z,13.80
2019-02-25T15:04:35.797Z,13.80
2019-02-25T15:07:06.856Z,13.90
2019-02-25T15:09:39.084Z,13.90
2019-02-25T15:12:09.753Z,13.70
2019-02-25T15:14:39.734Z,13.60
2019-02-25T15:17:10.539Z,13.60
2019-02-25T15:19:41.304Z,13.50
2019-02-25T15:22:11.990Z,13.40
2019-02-25T15:24:44.091Z,13.50
2019-02-25T15:27:12.986Z,13.50
2019-02-25T15:29:44.757Z,13.50
2019-02-25T15:32:14.262Z,13.50
2019-02-25T15:34:43.923Z,13.40
2019-02-25T15:37:14.003Z,13.50
2019-02-25T15:39:43.673Z,13.20
2019-02-25T15:42:13.212Z,13.20
2019-02-25T15:44:44.502Z,13.10
2019-02-25T15:47:15.094Z,13.10
2019-02-25T15:49:44.636Z,13.20
2019-02-25T15:52:16.568Z,13.10
2019-02-25T15:54:45.326Z,13.10
2019-02-25T15:57:14.799Z,13.00
2019-02-25T15:59:44.328Z,13.10
2019-02-25T16:02:14.371Z,13.00
2019-02-25T16:04:43.923Z,12.80
2019-02-25T16:07:13.485Z,12.90
2019-02-25T16:09:43.320Z,12.60
2019-02-25T16:12:12.851Z,12.60
2019-02-25T16:14:44.165Z,12.40
2019-02-25T16:17:13.602Z,12.50
2019-02-25T16:19:47.358Z,12.20
2019-02-25T16:22:14.266Z,12.30
2019-02-25T16:24:43.794Z,12.40
2019-02-25T16:27:13.961Z,12.40
2019-02-25T16:29:43.460Z,12.30
2019-02-25T16:32:13.168Z,12.10
2019-02-25T16:34:42.786Z,12.10
2019-02-25T16:37:12.407Z,12.10
2019-02-25T16:39:41.994Z,12.00
2019-02-25T16:42:11.924Z,11.90
2019-02-25T16:44:41.474Z,11.80
2019-02-25T16:47:11.868Z,11.80
2019-02-25T16:49:42.159Z,11.70
2019-02-25T16:52:13.747Z,11.70
2019-02-25T16:54:43.255Z,11.60
2019-02-25T16:57:14.191Z,11.50
2019-02-25T16:59:43.939Z,11.50
2019-02-25T17:02:14.226Z,11.40
2019-02-25T17:04:43.785Z,11.40
2019-02-25T17:07:14.384Z,11.30
2019-02-25T17:09:46.021Z,11.30
2019-02-25T17:12:15.488Z,11.20
2019-02-25T17:14:45.160Z,11.20
2019-02-25T17:17:14.803Z,11.00
2019-02-25T17:19:44.267Z,11.00
2019-02-25T17:22:13.754Z,11.00
2019-02-25T17:24:43.279Z,10.90
2019-02-25T17:27:14.158Z,10.80
2019-02-25T17:29:43.772Z,10.80
2019-02-25T17:32:14.594Z,10.70
2019-02-25T17:34:45.043Z,10.60
2019-02-25T17:37:16.645Z,10.60
2019-02-25T17:39:46.038Z,10.40
2019-02-25T17:42:15.739Z,10.40
2019-02-25T17:44:45.670Z,10.40
2019-02-25T17:47:24.049Z,10.30
2019-02-25T17:49:46.366Z,10.40
2019-02-25T17:52:16.820Z,10.40
2019-02-25T17:54:48.703Z,10.40
2019-02-25T17:57:18.531Z,10.30
2019-02-25T17:59:48.783Z,10.30
2019-02-25T18:02:19.235Z,10.10
2019-02-25T18:04:49.260Z,10.10
2019-02-25T18:07:19.900Z,10.10
2019-02-25T18:09:49.475Z,10.10
2019-02-25T18:12:20.335Z,10.00
2019-02-25T18:14:49.799Z,9.90
2019-02-25T18:17:21.523Z,9.80
2019-02-25T18:19:52.280Z,9.80
2019-02-25T18:22:21.890Z,9.70
2019-02-25T18:24:51.554Z,9.70
2019-02-25T18:27:21.074Z,9.60
2019-02-25T18:29:50.916Z,9.60
2019-02-25T18:32:21.738Z,9.60
2019-02-25T18:34:52.159Z,9.50
2019-02-25T18:37:22.683Z,9.40
2019-02-25T18:39:54.294Z,9.40
2019-02-25T18:42:23.575Z,9.40
2019-02-25T18:44:53.564Z,9.30
2019-02-25T18:47:25.574Z,9.20
2019-02-25T18:49:56.569Z,9.20
2019-02-25T18:52:27.426Z,9.10
2019-02-25T18:54:59.730Z,9.10
2019-02-25T18:57:29.523Z,9.00
2019-02-25T19:00:01.769Z,9.00
2019-02-25T19:02:33.407Z,9.00
2019-02-25T19:05:04.486Z,9.00
2019-02-25T19:07:34.742Z,9.00
2019-02-25T19:10:04.473Z,8.90
2019-02-25T19:12:34.346Z,8.90
2019-02-25T19:15:05.478Z,8.80
2019-02-25T19:17:36.034Z,8.80
2019-02-25T19:20:08.899Z,8.80
2019-02-25T19:22:41.805Z,8.70
2019-02-25T19:25:15.812Z,8.70
2019-02-25T19:27:44.506Z,8.70
2019-02-25T19:30:19.765Z,8.70
2019-02-25T19:32:50.611Z,8.70
2019-02-25T19:35:21.889Z,8.70
2019-02-25T19:37:52.076Z,8.60
2019-02-25T19:40:24.490Z,8.60
2019-02-25T19:42:56.753Z,8.60
2019-02-25T19:45:25.988Z,8.60
2019-02-25T19:47:57.890Z,8.50
2019-02-25T19:50:27.710Z,8.50
2019-02-25T19:53:00.437Z,8.50
2019-02-25T19:55:29.031Z,8.50
2019-02-25T19:57:58.849Z,8.40
2019-02-25T20:00:30.533Z,8.40
2019-02-25T20:03:05.778Z,8.40
2019-02-25T20:05:33.526Z,8.30
2019-02-25T20:08:02.988Z,8.30
2019-02-25T20:10:32.719Z,8.30
2019-02-25T20:13:05.345Z,8.20
2019-02-25T20:15:37.631Z,8.20
2019-02-25T20:18:06.984Z,8.10
2019-02-25T20:20:38.415Z,8.10
2019-02-25T20:23:08.566Z,8.00
2019-02-25T20:25:38.110Z,8.00
2019-02-25T20:28:07.691Z,7.80
2019-02-25T20:30:37.188Z,7.90
2019-02-25T20:33:08.599Z,7.80
2019-02-25T20:35:37.881Z,7.70
2019-02-25T20:38:07.361Z,7.60
2019-02-25T20:40:36.811Z,7.60
2019-02-25T20:43:06.435Z,7.60
2019-02-25T20:45:36.651Z,7.60
2019-02-25T20:48:06.584Z,7.50
2019-02-25T20:50:36.076Z,7.60
2019-02-25T20:53:07.992Z,7.50
2019-02-25T20:55:36.789Z,7.50
2019-02-25T20:58:06.570Z,7.50
2019-02-25T21:00:39.056Z,7.50
2019-02-25T21:03:07.511Z,7.40
2019-02-25T21:05:36.962Z,7.40
2019-02-25T21:08:08.092Z,7.40
2019-02-25T21:10:37.596Z,7.30
2019-02-25T21:13:07.051Z,7.30
2019-02-25T21:15:38.347Z,7.30
2019-02-25T21:18:08.366Z,7.30
2019-02-25T21:20:37.811Z,7.30
2019-02-25T21:23:08.557Z,7.30
2019-02-25T21:25:38.736Z,7.20
2019-02-25T21:28:09.102Z,7.20
2019-02-25T21:30:41.412Z,7.20
2019-02-25T21:33:13.343Z,7.10
2019-02-25T21:35:41.962Z,7.10
2019-02-25T21:38:11.487Z,7.10
2019-02-25T21:40:40.933Z,7.10
2019-02-25T21:43:14.413Z,7.00
2019-02-25T21:45:41.764Z,7.00
2019-02-25T21:48:11.259Z,7.00
2019-02-25T21:50:42.576Z,7.00
2019-02-25T21:53:13.943Z,6.90
2019-02-25T21:55:43.103Z,6.90
2019-02-25T21:58:12.562Z,6.90
2019-02-25T22:00:42.025Z,6.90
2019-02-25T22:03:13.227Z,6.80
2019-02-25T22:05:42.687Z,6.80
2019-02-25T22:08:12.143Z,6.80
2019-02-25T22:10:43.609Z,6.80
2019-02-25T22:13:14.287Z,6.80
2019-02-25T22:15:45.261Z,6.80
2019-02-25T22:18:14.863Z,6.70
2019-02-25T22:20:45.446Z,6.70
2019-02-25T22:23:15.534Z,6.70
2019-02-25T22:25:44.982Z,6.70
2019-02-25T22:28:14.447Z,6.70
2019-02-25T22:30:45.267Z,6.60
2019-02-25T22:33:27.266Z,6.70
2019-02-25T22:35:49.169Z,6.60
2019-02-25T22:38:17.993Z,6.60
2019-02-25T22:40:47.556Z,6.60
2019-02-25T22:43:18.738Z,6.50
2019-02-25T22:45:48.198Z,6.50
2019-02-25T22:48:19.091Z,6.50
2019-02-25T22:50:51.268Z,6.50
2019-02-25T22:53:20.125Z,6.40
2019-02-25T22:55:51.952Z,6.50
2019-02-25T22:58:20.797Z,6.40
2019-02-25T23:00:53.008Z,6.40
2019-02-25T23:03:25.045Z,6.30
2019-02-25T23:05:55.234Z,6.40
2019-02-25T23:08:26.047Z,6.30
2019-02-25T23:10:55.721Z,6.30
2019-02-25T23:13:27.475Z,6.30
2019-02-25T23:15:56.352Z,6.30
2019-02-25T23:18:28.022Z,6.20
2019-02-25T23:20:59.653Z,6.20
2019-02-25T23:23:30.104Z,6.20
2019-02-25T23:25:59.422Z,6.20
2019-02-25T23:28:30.471Z,6.20
2019-02-25T23:31:00.147Z,6.20
2019-02-25T23:33:29.626Z,6.20
2019-02-25T23:35:59.073Z,6.20
2019-02-25T23:38:28.536Z,6.30
2019-02-25T23:41:01.232Z,6.30
2019-02-25T23:43:33.807Z,6.30
2019-02-25T23:46:02.176Z,6.30
2019-02-25T23:48:33.703Z,6.40
2019-02-25T23:51:02.830Z,6.40
2019-02-25T23:53:32.936Z,6.40
2019-02-25T23:56:03.493Z,6.40
2019-02-25T23:58:32.941Z,6.50
